Time;durP1;ratioP1;P1;durP2;ratioP2;P2;SDS_P1;SDS_P2;PMS_P1;PMS_P2;Temp;Humidity;BMP_temperature;BMP_pressure;BME280_temperature;BME280_humidity;BME280_pressure;Samples;Min_cycle;Max_cycle;Signal;HPM_P1;HPM_P2
2021/10/14 00:00:54;;;;;;;8.40;3.78;;;4.40;99.90;;;;;;5052852;28;20025;-72
2021/10/14 00:03:20;;;;;;;5.75;3.25;;;4.30;99.90;;;;;;5052097;28;20033;-71
2021/10/14 00:05:46;;;;;;;6.93;3.08;;;4.20;99.90;;;;;;5053237;28;20039;-71
2021/10/14 00:08:12;;;;;;;7.57;3.63;;;4.10;99.90;;;;;;5051335;28;20053;-72
2021/10/14 00:10:38;;;;;;;6.28;4.07;;;4.10;99.90;;;;;;5052364;28;20104;-71
2021/10/14 00:13:04;;;;;;;7.28;3.60;;;4.10;99.90;;;;;;5052314;28;20111;-71
2021/10/14 00:15:30;;;;;;;7.13;3.42;;;4.10;99.90;;;;;;5051679;28;20108;-71
2021/10/14 00:17:58;;;;;;;7.25;3.28;;;4.10;99.90;;;;;;5052128;28;20437;-71
2021/10/14 00:20:23;;;;;;;6.45;3.53;;;4.20;99.90;;;;;;5062247;28;20024;-70
2021/10/14 00:22:49;;;;;;;5.50;3.40;;;4.20;99.90;;;;;;5072279;28;20039;-69
2021/10/14 00:25:15;;;;;;;5.40;3.30;;;4.10;99.90;;;;;;5071233;28;20433;-71
2021/10/14 00:27:40;;;;;;;4.32;3.00;;;4.00;99.90;;;;;;5072165;28;20450;-70
2021/10/14 00:30:07;;;;;;;7.80;3.80;;;4.00;99.90;;;;;;5071094;28;20454;-69
2021/10/14 00:32:32;;;;;;;7.30;3.53;;;3.90;99.90;;;;;;5071081;28;20032;-69
2021/10/14 00:34:58;;;;;;;5.60;3.20;;;3.90;99.90;;;;;;5071825;28;20033;-69
2021/10/14 00:37:24;;;;;;;7.75;3.70;;;3.80;99.90;;;;;;5071427;28;20035;-69
2021/10/14 00:39:49;;;;;;;9.23;4.18;;;3.80;99.90;;;;;;5071836;28;20063;-69
2021/10/14 00:42:15;;;;;;;6.90;4.10;;;3.70;99.90;;;;;;5071286;28;20024;-69
2021/10/14 00:44:45;;;;;;;5.43;3.58;;;3.70;99.90;;;;;;5071936;28;20129;-70
2021/10/14 00:47:11;;;;;;;5.78;3.85;;;3.70;99.90;;;;;;5071271;28;20468;-71
2021/10/14 00:49:37;;;;;;;6.15;3.70;;;3.70;99.90;;;;;;5072086;28;20066;-70
2021/10/14 00:52:03;;;;;;;6.78;3.92;;;3.70;99.90;;;;;;5071324;28;20052;-69
2021/10/14 00:54:29;;;;;;;7.25;3.92;;;3.60;99.90;;;;;;5070968;28;20032;-69
2021/10/14 00:56:55;;;;;;;7.78;3.67;;;3.60;99.90;;;;;;5071850;28;20082;-71
2021/10/14 00:59:21;;;;;;;5.38;3.65;;;3.60;99.90;;;;;;5070723;28;20028;-71
2021/10/14 01:01:47;;;;;;;6.35;3.72;;;3.60;99.90;;;;;;5071861;28;20373;-71
2021/10/14 01:04:13;;;;;;;6.38;3.75;;;3.60;99.90;;;;;;5071021;28;20036;-73
2021/10/14 01:06:38;;;;;;;6.30;3.53;;;3.50;99.90;;;;;;5071317;28;20028;-70
2021/10/14 01:09:04;;;;;;;7.03;3.92;;;3.50;99.90;;;;;;5071497;28;20043;-71
2021/10/14 01:11:30;;;;;;;9.45;5.25;;;3.50;99.90;;;;;;5070782;28;20112;-71
2021/10/14 01:13:56;;;;;;;9.98;4.15;;;3.50;99.90;;;;;;5071406;28;20111;-71
2021/10/14 01:16:21;;;;;;;8.75;4.00;;;3.50;99.90;;;;;;5070815;28;20442;-71
2021/10/14 01:18:47;;;;;;;8.32;4.15;;;3.50;99.90;;;;;;5071983;28;20043;-71
2021/10/14 01:21:13;;;;;;;8.50;4.35;;;3.50;99.90;;;;;;5032250;28;20076;-71
2021/10/14 01:23:40;;;;;;;5.70;4.38;;;3.50;99.90;;;;;;5031879;28;20025;-71
2021/10/14 01:26:06;;;;;;;8.73;4.35;;;3.50;99.90;;;;;;5031650;28;20029;-71
2021/10/14 01:28:31;;;;;;;6.38;4.00;;;3.50;99.90;;;;;;5031121;28;20030;-71
2021/10/14 01:30:58;;;;;;;7.88;4.65;;;3.50;99.90;;;;;;5031144;28;20116;-71
2021/10/14 01:33:23;;;;;;;13.15;4.70;;;3.60;99.90;;;;;;5030846;28;20026;-71
2021/10/14 01:35:49;;;;;;;10.02;4.47;;;3.60;99.90;;;;;;5031561;28;20033;-71
2021/10/14 01:38:15;;;;;;;7.75;4.07;;;3.70;99.90;;;;;;5031060;28;20115;-71
2021/10/14 01:40:40;;;;;;;12.35;4.65;;;3.80;99.90;;;;;;5031621;28;20382;-71
2021/10/14 01:43:12;;;;;;;9.82;4.53;;;3.90;99.90;;;;;;5035301;28;20394;-71
2021/10/14 01:45:38;;;;;;;7.40;4.18;;;4.00;99.90;;;;;;5035414;28;20025;-71
2021/10/14 01:48:04;;;;;;;7.40;3.70;;;4.10;99.90;;;;;;5035452;28;20458;-71
2021/10/14 01:50:30;;;;;;;4.97;3.65;;;4.20;99.90;;;;;;5033689;28;20025;-71
2021/10/14 01:52:55;;;;;;;6.10;3.35;;;4.20;99.90;;;;;;5035123;28;20025;-71
2021/10/14 01:55:21;;;;;;;10.38;4.40;;;4.20;99.90;;;;;;5034280;28;20030;-71
2021/10/14 01:57:46;;;;;;;6.00;3.70;;;4.20;99.90;;;;;;5034136;28;20033;-71
2021/10/14 02:00:12;;;;;;;7.28;3.60;;;4.10;99.90;;;;;;5033976;28;20030;-73
2021/10/14 02:02:38;;;;;;;7.05;4.10;;;4.00;99.90;;;;;;5034922;28;20026;-71
2021/10/14 02:05:05;;;;;;;6.25;4.15;;;4.00;99.90;;;;;;5034247;28;20493;-71
2021/10/14 02:07:31;;;;;;;7.93;4.57;;;3.90;99.90;;;;;;5033645;28;20056;-71
2021/10/14 02:09:56;;;;;;;6.72;4.03;;;3.80;99.90;;;;;;5034795;28;20112;-71
2021/10/14 02:12:22;;;;;;;6.20;4.03;;;3.70;99.90;;;;;;5033308;28;20036;-71
2021/10/14 02:14:48;;;;;;;8.10;4.75;;;3.70;99.90;;;;;;5034844;28;20088;-71
2021/10/14 02:17:13;;;;;;;6.03;4.40;;;3.70;99.90;;;;;;5034391;28;20091;-73
2021/10/14 02:19:39;;;;;;;6.13;4.28;;;3.60;99.90;;;;;;5043710;28;20055;-71
2021/10/14 02:22:05;;;;;;;11.60;4.60;;;3.60;99.90;;;;;;5074786;28;20108;-71
2021/10/14 02:24:30;;;;;;;10.27;4.38;;;3.60;99.90;;;;;;5073637;28;20047;-71
2021/10/14 02:26:56;;;;;;;8.02;4.50;;;3.70;99.90;;;;;;5073866;28;20029;-71
2021/10/14 02:29:22;;;;;;;10.18;4.50;;;3.70;99.90;;;;;;5073759;28;20112;-71
2021/10/14 02:31:47;;;;;;;7.28;4.28;;;3.70;99.90;;;;;;5074458;28;20039;-71
2021/10/14 02:34:13;;;;;;;7.47;3.95;;;3.70;99.90;;;;;;5073846;28;20029;-71
2021/10/14 02:36:38;;;;;;;9.13;4.28;;;3.70;99.90;;;;;;5074521;28;20112;-71
2021/10/14 02:39:04;;;;;;;9.30;4.20;;;3.70;99.90;;;;;;5074528;28;20033;-70
2021/10/14 02:41:31;;;;;;;8.38;4.28;;;3.70;99.90;;;;;;5073610;28;20538;-71
2021/10/14 02:43:56;;;;;;;7.25;4.03;;;3.60;99.90;;;;;;5074187;28;20489;-71
2021/10/14 02:46:22;;;;;;;7.10;3.70;;;3.60;99.90;;;;;;5073244;28;20076;-71
2021/10/14 02:48:48;;;;;;;7.20;3.95;;;3.50;99.90;;;;;;5074063;28;20028;-71
2021/10/14 02:51:13;;;;;;;7.43;3.92;;;3.40;99.90;;;;;;5072897;28;20029;-73
2021/10/14 02:53:39;;;;;;;7.35;4.07;;;3.30;99.90;;;;;;5054805;28;20025;-71
2021/10/14 02:56:05;;;;;;;7.50;4.00;;;3.30;99.90;;;;;;5073261;28;20443;-72
2021/10/14 02:58:30;;;;;;;7.82;4.25;;;3.20;99.90;;;;;;5072517;28;20067;-71
2021/10/14 03:00:56;;;;;;;9.30;4.50;;;3.20;99.90;;;;;;5074191;28;20477;-71
2021/10/14 03:03:21;;;;;;;8.90;4.93;;;3.20;99.90;;;;;;5054568;28;20037;-71
2021/10/14 03:05:47;;;;;;;7.30;4.43;;;3.20;99.90;;;;;;5073805;28;20033;-71
2021/10/14 03:08:13;;;;;;;7.85;4.95;;;3.20;99.90;;;;;;5073000;28;20048;-73
2021/10/14 03:10:38;;;;;;;7.22;4.80;;;3.20;99.90;;;;;;5072721;28;20025;-71
2021/10/14 03:13:04;;;;;;;9.98;4.90;;;3.30;99.90;;;;;;5073251;28;20028;-70
2021/10/14 03:15:30;;;;;;;8.40;4.60;;;3.30;99.90;;;;;;5072811;28;20055;-71
2021/10/14 03:17:55;;;;;;;8.38;5.18;;;3.30;99.90;;;;;;5073163;28;20453;-71
2021/10/14 03:20:21;;;;;;;9.13;4.60;;;3.30;99.90;;;;;;5061652;28;20029;-71
2021/10/14 03:22:47;;;;;;;9.25;4.75;;;3.30;99.90;;;;;;5053159;28;20378;-71
2021/10/14 03:25:13;;;;;;;9.70;5.15;;;3.40;99.90;;;;;;5053382;28;20025;-71
2021/10/14 03:27:38;;;;;;;9.55;4.03;;;3.40;99.90;;;;;;5034743;28;20029;-71
2021/10/14 03:30:05;;;;;;;8.70;4.90;;;3.40;99.90;;;;;;5053055;28;20040;-71
2021/10/14 03:32:30;;;;;;;9.98;5.05;;;3.50;99.90;;;;;;5052672;28;20116;-71
2021/10/14 03:34:56;;;;;;;7.00;4.90;;;3.50;99.90;;;;;;5053240;28;20107;-71
2021/10/14 03:37:22;;;;;;;9.88;5.47;;;3.50;99.90;;;;;;5051761;28;20051;-71
2021/10/14 03:39:47;;;;;;;6.72;5.18;;;3.50;99.90;;;;;;5052779;28;20417;-71
2021/10/14 03:42:14;;;;;;;7.05;4.60;;;3.50;99.90;;;;;;5052903;28;20025;-71
2021/10/14 03:44:40;;;;;;;11.73;4.13;;;3.50;99.90;;;;;;5052342;28;20032;-71
2021/10/14 03:47:05;;;;;;;9.65;4.38;;;3.40;99.90;;;;;;5052735;28;20032;-70
2021/10/14 03:49:31;;;;;;;9.85;4.32;;;3.30;99.90;;;;;;5051458;28;20191;-71
2021/10/14 03:51:56;;;;;;;7.88;4.45;;;3.30;99.90;;;;;;5052012;28;20074;-70
2021/10/14 03:54:22;;;;;;;7.18;4.18;;;3.20;99.90;;;;;;5051939;28;20036;-71
2021/10/14 03:56:48;;;;;;;7.50;4.38;;;3.10;99.90;;;;;;5035026;28;20072;-70
2021/10/14 03:59:13;;;;;;;8.73;4.88;;;3.10;99.90;;;;;;5052872;28;20094;-70
2021/10/14 04:01:39;;;;;;;11.32;6.03;;;3.00;99.90;;;;;;5052654;28;20461;-71
2021/10/14 04:04:05;;;;;;;8.43;5.32;;;3.00;99.90;;;;;;5052636;28;20037;-70
2021/10/14 04:06:30;;;;;;;10.85;5.90;;;3.00;99.90;;;;;;5051521;28;20068;-70
2021/10/14 04:08:56;;;;;;;13.93;5.50;;;2.90;99.90;;;;;;5052452;28;20033;-71
2021/10/14 04:11:23;;;;;;;14.07;6.00;;;3.00;99.90;;;;;;5051344;28;20544;-71
2021/10/14 04:13:48;;;;;;;10.48;5.95;;;3.00;99.90;;;;;;5052088;28;20033;-71
2021/10/14 04:16:14;;;;;;;9.25;5.43;;;3.00;99.90;;;;;;5052365;28;20057;-70
2021/10/14 04:18:39;;;;;;;8.25;5.15;;;3.00;99.90;;;;;;5051726;28;20028;-71
2021/10/14 04:21:05;;;;;;;10.32;4.68;;;3.00;99.90;;;;;;5068880;28;20469;-71
2021/10/14 04:23:31;;;;;;;10.18;5.20;;;3.00;99.90;;;;;;5071171;28;20071;-71
2021/10/14 04:25:57;;;;;;;8.35;4.97;;;3.00;99.90;;;;;;5072212;28;20024;-71
2021/10/14 04:28:23;;;;;;;9.48;5.50;;;3.00;99.90;;;;;;5071075;28;20484;-71
2021/10/14 04:30:49;;;;;;;10.35;5.65;;;2.90;99.90;;;;;;5072101;28;20103;-71
2021/10/14 04:33:15;;;;;;;10.80;6.50;;;3.00;99.90;;;;;;5072048;28;20085;-71
2021/10/14 04:35:41;;;;;;;22.27;8.43;;;3.00;99.90;;;;;;5070800;28;20055;-71
2021/10/14 04:38:06;;;;;;;20.85;9.15;;;3.00;99.90;;;;;;5071206;28;20094;-70
2021/10/14 04:40:32;;;;;;;20.05;8.18;;;3.00;99.90;;;;;;5071515;28;20032;-71
2021/10/14 04:42:58;;;;;;;15.88;7.25;;;3.10;99.90;;;;;;5071880;28;20082;-71
2021/10/14 04:45:24;;;;;;;14.52;6.25;;;3.20;99.90;;;;;;5070972;28;20476;-71
2021/10/14 04:47:49;;;;;;;10.90;5.00;;;3.20;99.90;;;;;;5071866;28;20031;-71
2021/10/14 04:50:15;;;;;;;16.85;5.13;;;3.30;99.90;;;;;;5054057;28;20025;-70
2021/10/14 04:52:41;;;;;;;14.57;6.13;;;3.30;99.90;;;;;;5070949;28;20346;-71
2021/10/14 04:55:07;;;;;;;9.27;5.57;;;3.30;99.90;;;;;;5071703;28;20373;-71
2021/10/14 04:57:33;;;;;;;12.15;6.18;;;3.40;99.90;;;;;;5070965;28;20047;-71
2021/10/14 04:59:59;;;;;;;14.60;6.40;;;3.40;99.90;;;;;;5071448;28;20116;-71
2021/10/14 05:02:25;;;;;;;11.23;6.15;;;3.50;99.90;;;;;;5052322;28;20113;-71
2021/10/14 05:04:50;;;;;;;11.38;5.68;;;3.50;99.90;;;;;;5070997;28;20025;-71
2021/10/14 05:07:16;;;;;;;10.30;6.05;;;3.50;99.90;;;;;;5071212;28;20071;-72
2021/10/14 05:09:42;;;;;;;10.07;6.03;;;3.60;99.90;;;;;;5070966;28;20040;-72
2021/10/14 05:12:07;;;;;;;10.80;6.05;;;3.60;99.90;;;;;;5071522;28;20493;-71
2021/10/14 05:14:33;;;;;;;11.90;6.35;;;3.70;99.90;;;;;;5070617;28;20028;-71
2021/10/14 05:16:59;;;;;;;10.38;5.22;;;3.70;99.90;;;;;;5074524;28;20029;-72
2021/10/14 05:19:24;;;;;;;9.70;5.82;;;3.70;99.90;;;;;;5071845;28;20060;-71
2021/10/14 05:21:50;;;;;;;10.18;5.35;;;3.70;99.90;;;;;;5037797;28;20078;-71
2021/10/14 05:24:16;;;;;;;11.18;5.82;;;3.70;99.90;;;;;;5055065;28;20067;-71
2021/10/14 05:26:42;;;;;;;8.15;5.38;;;3.70;99.90;;;;;;5054870;28;20478;-71
2021/10/14 05:29:08;;;;;;;9.20;5.72;;;3.70;99.90;;;;;;5055351;28;20033;-71
2021/10/14 05:31:34;;;;;;;13.05;6.00;;;3.70;99.90;;;;;;5054646;28;20040;-71
2021/10/14 05:34:00;;;;;;;8.70;5.68;;;3.80;99.90;;;;;;5055455;28;20033;-73
2021/10/14 05:36:26;;;;;;;10.73;5.68;;;3.80;99.90;;;;;;5054376;28;20074;-72
2021/10/14 05:38:51;;;;;;;9.18;6.05;;;3.80;99.90;;;;;;5054834;28;20393;-72
2021/10/14 05:41:17;;;;;;;9.80;6.03;;;3.90;99.90;;;;;;5055151;28;20500;-73
2021/10/14 05:43:43;;;;;;;13.25;6.90;;;3.90;99.90;;;;;;5054557;28;20037;-78
2021/10/14 05:46:09;;;;;;;13.10;6.88;;;3.90;99.90;;;;;;5055226;28;20135;-73
2021/10/14 05:48:35;;;;;;;16.10;6.22;;;4.10;99.90;;;;;;5054371;28;20065;-72
2021/10/14 05:51:02;;;;;;;17.27;7.50;;;4.10;99.90;;;;;;5054811;28;20028;-73
2021/10/14 05:53:28;;;;;;;15.20;6.60;;;4.20;99.90;;;;;;5054512;28;20039;-71
2021/10/14 05:55:54;;;;;;;12.95;6.45;;;4.40;99.90;;;;;;5054718;28;20377;-72
2021/10/14 05:58:19;;;;;;;11.77;5.70;;;4.60;99.90;;;;;;5054618;28;20032;-76
2021/10/14 06:00:45;;;;;;;8.15;5.45;;;4.60;99.90;;;;;;5054414;28;20094;-75
2021/10/14 06:03:10;;;;;;;9.57;5.50;;;4.60;99.90;;;;;;5054520;28;20528;-72
2021/10/14 06:05:36;;;;;;;10.52;5.18;;;4.70;99.90;;;;;;5035992;28;20025;-73
2021/10/14 06:08:02;;;;;;;7.18;4.85;;;4.70;99.90;;;;;;5054582;28;20406;-73
2021/10/14 06:10:27;;;;;;;9.05;5.68;;;4.70;99.90;;;;;;5053470;28;20029;-74
2021/10/14 06:12:53;;;;;;;8.30;4.88;;;4.80;99.90;;;;;;5053817;28;20614;-73
2021/10/14 06:15:20;;;;;;;11.60;5.47;;;4.80;99.90;;;;;;5039213;28;20034;-73
2021/10/14 06:17:45;;;;;;;7.45;5.18;;;4.90;99.90;;;;;;5034193;28;20037;-74
2021/10/14 06:20:11;;;;;;;8.15;4.95;;;4.90;99.90;;;;;;5051912;28;20032;-75
2021/10/14 06:22:37;;;;;;;10.57;5.20;;;5.00;99.90;;;;;;5046431;28;20466;-74
2021/10/14 06:25:04;;;;;;;8.25;4.90;;;5.00;99.90;;;;;;5053815;28;20037;-74
2021/10/14 06:27:30;;;;;;;7.75;5.03;;;5.10;99.90;;;;;;5052167;28;20040;-73
2021/10/14 06:29:58;;;;;;;8.18;5.00;;;5.10;99.90;;;;;;5039407;28;20383;-73
2021/10/14 06:32:25;;;;;;;6.97;4.55;;;5.10;99.90;;;;;;5033343;28;20026;-73
2021/10/14 06:34:52;;;;;;;7.65;5.00;;;5.20;99.90;;;;;;5034425;28;20084;-73
2021/10/14 06:37:18;;;;;;;7.63;4.97;;;5.20;99.90;;;;;;5033874;28;20497;-73
2021/10/14 06:39:44;;;;;;;7.85;4.88;;;5.30;99.90;;;;;;5033068;28;20033;-73
2021/10/14 06:42:09;;;;;;;10.23;5.30;;;5.40;99.90;;;;;;5034206;28;20033;-73
2021/10/14 06:44:35;;;;;;;9.55;5.90;;;5.40;99.90;;;;;;5015387;28;20085;-73
2021/10/14 06:47:01;;;;;;;6.78;5.32;;;5.40;99.90;;;;;;5034458;28;20025;-73
2021/10/14 06:49:26;;;;;;;8.15;4.78;;;5.40;99.90;;;;;;5033075;28;20026;-73
2021/10/14 06:51:53;;;;;;;7.10;4.93;;;5.40;99.90;;;;;;5034019;28;20025;-73
2021/10/14 06:54:19;;;;;;;8.45;5.28;;;5.50;99.90;;;;;;5034037;28;20033;-73
2021/10/14 06:56:45;;;;;;;6.85;5.30;;;5.50;99.90;;;;;;5032605;28;20040;-73
2021/10/14 06:59:11;;;;;;;10.63;5.38;;;5.60;99.90;;;;;;5033962;28;20092;-73
2021/10/14 07:01:36;;;;;;;7.22;5.20;;;5.70;99.90;;;;;;5032952;28;20028;-72
2021/10/14 07:04:02;;;;;;;6.97;4.80;;;5.90;99.90;;;;;;5015927;28;20038;-73
2021/10/14 07:06:27;;;;;;;8.40;4.93;;;5.90;99.90;;;;;;5032154;28;20038;-73
2021/10/14 07:08:53;;;;;;;8.35;4.93;;;6.00;99.90;;;;;;5033347;28;20125;-73
2021/10/14 07:11:19;;;;;;;8.05;5.25;;;6.00;99.90;;;;;;5032931;28;20033;-73
2021/10/14 07:13:45;;;;;;;10.45;5.20;;;6.10;99.90;;;;;;5032668;28;20029;-73
2021/10/14 07:16:11;;;;;;;9.52;4.93;;;6.10;99.90;;;;;;5033396;28;20450;-74
2021/10/14 07:18:37;;;;;;;9.43;5.57;;;6.30;99.90;;;;;;5033092;28;20037;-73
2021/10/14 07:21:03;;;;;;;7.85;4.97;;;6.40;99.90;;;;;;5032946;28;20104;-74
2021/10/14 07:23:29;;;;;;;8.10;4.43;;;6.50;99.90;;;;;;5032741;28;20087;-73
2021/10/14 07:25:55;;;;;;;8.45;4.93;;;6.60;99.90;;;;;;5032543;28;20030;-73
2021/10/14 07:28:21;;;;;;;7.38;4.72;;;6.80;99.90;;;;;;5033635;28;20037;-73
2021/10/14 07:30:47;;;;;;;9.98;4.97;;;7.00;99.90;;;;;;5032426;28;20486;-73
2021/10/14 07:33:13;;;;;;;7.53;4.80;;;7.10;99.90;;;;;;5015412;28;20021;-73
2021/10/14 07:35:41;;;;;;;9.93;4.70;;;7.20;99.90;;;;;;5032235;28;20128;-73
2021/10/14 07:38:10;;;;;;;8.15;5.05;;;7.30;99.90;;;;;;5033103;28;20507;-73
2021/10/14 07:40:39;;;;;;;6.57;4.28;;;7.40;99.90;;;;;;5032054;28;20032;-73
2021/10/14 07:43:09;;;;;;;10.38;5.28;;;7.50;99.90;;;;;;5033084;28;20018;-73
2021/10/14 07:45:35;;;;;;;8.20;3.75;;;7.60;99.90;;;;;;5031876;28;20482;-73
2021/10/14 07:48:01;;;;;;;7.38;3.88;;;7.80;99.90;;;;;;5033055;28;20030;-73
2021/10/14 07:50:26;;;;;;;6.88;3.50;;;8.00;99.90;;;;;;5032346;28;20025;-73
2021/10/14 07:52:52;;;;;;;6.72;3.63;;;8.10;99.90;;;;;;5032897;28;20029;-73
2021/10/14 07:55:18;;;;;;;9.32;5.47;;;8.30;99.90;;;;;;5014866;28;20375;-73
2021/10/14 07:57:44;;;;;;;9.85;4.93;;;8.50;99.90;;;;;;5031292;28;20115;-73
2021/10/14 08:00:11;;;;;;;8.60;4.68;;;8.60;99.90;;;;;;5015108;28;20071;-74
2021/10/14 08:02:37;;;;;;;7.45;4.53;;;8.50;99.90;;;;;;5031759;28;20029;-73
2021/10/14 08:05:03;;;;;;;6.57;4.25;;;8.50;99.90;;;;;;5032769;28;20064;-73
2021/10/14 08:07:29;;;;;;;10.48;5.03;;;8.50;99.90;;;;;;5012970;28;20439;-72
2021/10/14 08:09:55;;;;;;;7.60;4.68;;;8.50;99.90;;;;;;5032564;28;20083;-74
2021/10/14 08:12:22;;;;;;;7.63;4.53;;;8.40;99.90;;;;;;5014619;28;20049;-73
2021/10/14 08:14:48;;;;;;;7.05;4.82;;;8.50;99.90;;;;;;5031744;28;20035;-73
2021/10/14 08:17:13;;;;;;;7.82;4.00;;;8.60;99.90;;;;;;5032265;28;20025;-73
2021/10/14 08:19:39;;;;;;;6.15;4.07;;;8.70;99.90;;;;;;5040407;28;20028;-74
2021/10/14 08:22:05;;;;;;;10.52;4.78;;;8.70;99.90;;;;;;5072354;28;20346;-73
2021/10/14 08:24:30;;;;;;;8.90;4.72;;;8.80;99.90;;;;;;5071252;28;20064;-74
2021/10/14 08:26:56;;;;;;;9.10;4.68;;;9.10;99.90;;;;;;5071853;28;20024;-74
2021/10/14 08:29:22;;;;;;;7.30;4.50;;;9.20;99.90;;;;;;5071839;28;20036;-73
2021/10/14 08:31:47;;;;;;;6.95;4.30;;;9.40;99.90;;;;;;5070968;28;20385;-73
2021/10/14 08:34:13;;;;;;;8.18;4.13;;;9.40;99.90;;;;;;5072263;28;20384;-73
2021/10/14 08:36:41;;;;;;;7.95;4.90;;;9.50;99.90;;;;;;5070852;28;20421;-73
2021/10/14 08:39:06;;;;;;;9.35;4.05;;;9.50;99.90;;;;;;5071951;28;20024;-73
2021/10/14 08:41:32;;;;;;;5.28;3.40;;;9.60;99.90;;;;;;5071093;28;20035;-74
2021/10/14 08:43:59;;;;;;;3.55;2.42;;;9.70;99.90;;;;;;5071561;28;20043;-74
2021/10/14 08:46:25;;;;;;;4.55;2.47;;;9.80;99.90;;;;;;5070916;28;20029;-71
2021/10/14 08:48:51;;;;;;;7.60;2.80;;;9.90;99.90;;;;;;5071557;28;20020;-73
2021/10/14 08:51:16;;;;;;;5.32;2.00;;;10.10;99.90;;;;;;5070715;28;20031;-73
2021/10/14 08:53:45;;;;;;;5.65;2.45;;;10.20;99.90;;;;;;5070689;28;20032;-73
2021/10/14 08:56:11;;;;;;;5.63;2.53;;;10.30;99.90;;;;;;5071467;28;20373;-73
2021/10/14 08:58:37;;;;;;;4.30;2.10;;;10.50;99.90;;;;;;5070006;28;20393;-73
2021/10/14 09:01:13;;;;;;;7.07;4.05;;;10.50;99.90;;;;;;5071293;28;20025;-73
2021/10/14 09:03:47;;;;;;;9.93;4.22;;;10.90;99.90;;;;;;5070196;28;20420;-73
2021/10/14 09:06:14;;;;;;;8.02;4.18;;;11.10;99.90;;;;;;5071304;28;20124;-73
2021/10/14 09:08:44;;;;;;;9.32;4.65;;;11.20;99.90;;;;;;5070045;28;20059;-73
2021/10/14 09:11:21;;;;;;;14.80;5.45;;;11.40;99.90;;;;;;5071283;28;20044;-73
2021/10/14 09:13:58;;;;;;;9.25;4.05;;;11.50;99.90;;;;;;5070321;28;20025;-73
2021/10/14 09:16:23;;;;;;;7.57;4.28;;;11.60;99.90;;;;;;5071416;28;20028;-73
2021/10/14 09:18:49;;;;;;;7.32;3.53;;;11.80;99.90;;;;;;5070204;28;20081;-73
2021/10/14 09:21:29;;;;;;;6.35;4.25;;;11.90;99.90;;;;;;5053121;28;20037;-73
2021/10/14 09:23:58;;;;;;;6.35;3.97;;;11.90;99.90;;;;;;5051182;28;20065;-73
2021/10/14 09:26:45;;;;;;;6.75;3.30;;;12.00;99.90;;;;;;5051259;28;20053;-73
2021/10/14 09:29:12;;;;;;;5.13;2.80;;;12.20;99.90;;;;;;5050632;28;20029;-74
2021/10/14 09:31:55;;;;;;;13.27;2.92;;;12.40;99.30;;;;;;5050359;28;20029;-73
2021/10/14 09:34:31;;;;;;;6.88;2.85;;;12.60;98.80;;;;;;5051039;28;20494;-72
2021/10/14 09:37:00;;;;;;;5.13;2.50;;;12.70;97.90;;;;;;5051197;28;20496;-73
2021/10/14 09:39:26;;;;;;;5.50;2.00;;;12.80;97.30;;;;;;5051113;28;20029;-73
2021/10/14 09:41:52;;;;;;;4.68;2.33;;;12.80;95.50;;;;;;5050456;28;20025;-73
2021/10/14 09:44:20;;;;;;;3.53;2.33;;;12.90;95.50;;;;;;5050994;28;20067;-73
2021/10/14 09:46:50;;;;;;;6.55;2.40;;;12.90;95.50;;;;;;5050170;28;20094;-72
2021/10/14 09:49:30;;;;;;;6.32;2.83;;;13.00;94.90;;;;;;5051010;28;20033;-72
2021/10/14 09:52:00;;;;;;;5.60;2.80;;;13.10;95.10;;;;;;5050676;28;20067;-72
2021/10/14 09:54:29;;;;;;;5.22;2.22;;;13.10;95.50;;;;;;5050723;28;20535;-72
2021/10/14 09:56:55;;;;;;;4.88;2.67;;;13.10;94.30;;;;;;5050965;28;20029;-72
2021/10/14 09:59:22;;;;;;;5.43;2.35;;;13.20;94.00;;;;;;5050979;28;20032;-72
2021/10/14 10:01:52;;;;;;;5.38;2.80;;;13.20;94.20;;;;;;5051023;28;20117;-72
2021/10/14 10:04:25;;;;;;;3.50;2.42;;;13.20;94.60;;;;;;5054712;28;20033;-72
2021/10/14 10:06:54;;;;;;;3.80;2.50;;;13.20;94.40;;;;;;5053974;28;20871;-72
2021/10/14 10:09:22;;;;;;;2.95;2.10;;;13.30;94.00;;;;;;5054421;28;20037;-72
2021/10/14 10:11:54;;;;;;;5.55;2.10;;;13.30;93.20;;;;;;5053810;28;20049;-72
2021/10/14 10:14:22;;;;;;;5.20;1.75;;;13.30;92.10;;;;;;5053779;28;20040;-71
2021/10/14 10:16:58;;;;;;;6.25;2.20;;;13.20;91.80;;;;;;5053482;28;20082;-71
2021/10/14 10:19:42;;;;;;;5.30;1.90;;;13.20;91.90;;;;;;5057022;28;20032;-71
2021/10/14 10:22:10;;;;;;;8.35;2.25;;;13.30;91.20;;;;;;5074473;28;20473;-71
2021/10/14 10:24:35;;;;;;;8.00;3.80;;;13.50;91.00;;;;;;5073620;28;20040;-71
2021/10/14 10:27:04;;;;;;;7.22;3.35;;;13.60;91.80;;;;;;5074353;28;20171;-72
2021/10/14 10:29:29;;;;;;;8.30;3.28;;;13.50;93.80;;;;;;5073570;28;20048;-72
2021/10/14 10:31:55;;;;;;;6.13;2.83;;;13.60;91.40;;;;;;5074085;28;20462;-72
2021/10/14 10:34:59;;;;;;;10.05;3.80;;;13.50;91.80;;;;;;5074155;28;20725;-73
2021/10/14 10:37:39;;;;;;;5.53;3.17;;;13.50;92.00;;;;;;5069115;28;20044;-71
2021/10/14 10:40:15;;;;;;;;;;;13.60;91.30;;;;;;5074466;28;20024;-72
2021/10/14 10:42:55;;;;;;;6.78;3.03;;;13.80;91.60;;;;;;5073166;28;19912;-73
2021/10/14 10:45:22;;;;;;;4.70;2.97;;;13.80;91.30;;;;;;5074040;28;20029;-71
2021/10/14 10:47:54;;;;;;;5.80;2.53;;;13.80;92.00;;;;;;5073155;28;20106;-71
2021/10/14 10:50:33;;;;;;;7.05;2.58;;;13.90;91.00;;;;;;5073916;28;20485;-73
2021/10/14 10:53:11;;;;;;;10.07;3.05;;;14.00;90.20;;;;;;5073608;28;20028;-71
2021/10/14 10:55:40;;;;;;;6.78;2.70;;;;;;;;;;5072819;28;20028;-71
2021/10/14 10:58:09;;;;;;;5.88;2.45;;;;;;;;;;5073481;28;20158;-71
2021/10/14 11:00:37;;;;;;;4.20;2.03;;;14.60;95.40;;;;;;5072529;28;20028;-71
2021/10/14 11:03:20;;;;;;;2.58;1.27;;;14.70;85.20;;;;;;5073479;28;20462;-73
2021/10/14 11:05:48;;;;;;;4.20;1.60;;;;;;;;;;5072637;28;20029;-73
2021/10/14 11:08:33;;;;;;;3.25;1.40;;;14.90;78.60;;;;;;5073402;28;20059;-71
2021/10/14 11:11:06;;;;;;;3.85;1.30;;;15.00;79.10;;;;;;5073500;28;20028;-72
2021/10/14 11:13:36;;;;;;;3.13;1.42;;;15.20;78.90;;;;;;5072230;28;20033;-73
2021/10/14 11:16:06;;;;;;;3.28;1.25;;;15.20;77.80;;;;;;5072891;28;20412;-71
2021/10/14 11:18:34;;;;;;;2.13;1.05;;;15.30;77.30;;;;;;5072662;28;20032;-73
2021/10/14 11:21:02;;;;;;;1.25;1.08;;;15.30;77.70;;;;;;5057448;28;20108;-73
2021/10/14 11:23:38;;;;;;;5.25;1.67;;;;;;;;;;5053205;28;20378;-73
2021/10/14 11:26:18;;;;;;;2.17;1.33;;;15.60;98.20;;;;;;5053553;28;20138;-74
2021/10/14 11:29:04;;;;;;;4.68;1.50;;;15.70;79.00;;;;;;5052519;28;20059;-73
2021/10/14 11:31:40;;;;;;;3.78;1.77;;;15.90;74.30;;;;;;5052861;28;20037;-73
2021/10/14 11:34:14;;;;;;;5.20;1.73;;;16.10;74.00;;;;;;5052979;28;20028;-74
2021/10/14 11:36:49;;;;;;;2.35;1.25;;;16.30;72.10;;;;;;5052516;28;20439;-73
2021/10/14 11:39:16;;;;;;;4.32;1.48;;;16.30;72.60;;;;;;5052792;28;20032;-73
2021/10/14 11:41:42;;;;;;;5.95;2.03;;;16.30;72.30;;;;;;5051864;28;20044;-73
2021/10/14 11:44:09;;;;;;;5.60;2.13;;;16.50;73.40;;;;;;5052532;28;20041;-73
2021/10/14 11:46:37;;;;;;;3.47;1.80;;;16.50;72.60;;;;;;5052357;28;20537;-73
2021/10/14 11:49:11;;;;;;;4.97;2.45;;;16.60;72.30;;;;;;5052644;28;20377;-73
2021/10/14 11:51:38;;;;;;;6.80;2.45;;;16.80;82.60;;;;;;5052073;28;20032;-73
2021/10/14 11:54:06;;;;;;;4.35;2.25;;;16.90;87.70;;;;;;5052336;28;20530;-73
2021/10/14 11:56:40;;;;;;;8.18;2.17;;;16.90;89.20;;;;;;5052563;28;20017;-73
2021/10/14 11:59:06;;;;;;;6.15;2.58;;;;;;;;;;5052630;28;20055;-73
2021/10/14 12:01:40;;;;;;;3.22;2.10;;;17.20;93.60;;;;;;5052948;28;20036;-73
2021/10/14 12:04:07;;;;;;;6.47;2.47;;;17.20;70.70;;;;;;5052201;28;20184;-73
2021/10/14 12:06:33;;;;;;;2.90;1.75;;;17.30;68.70;;;;;;5051979;28;20055;-73
2021/10/14 12:08:59;;;;;;;6.88;2.45;;;17.20;69.60;;;;;;5052048;28;20064;-73
2021/10/14 12:11:25;;;;;;;3.30;2.00;;;17.10;69.60;;;;;;5052236;28;20117;-73
2021/10/14 12:13:56;;;;;;;4.00;2.08;;;17.00;70.40;;;;;;5051496;28;20091;-73
2021/10/14 12:16:21;;;;;;;;;;;17.00;69.50;;;;;;5052655;28;20029;-73
2021/10/14 12:18:47;;;;;;;3.72;1.90;;;16.90;69.90;;;;;;5051811;28;19950;-73
2021/10/14 12:21:33;;;;;;;7.65;2.15;;;16.90;70.70;;;;;;5069754;28;20107;-73
2021/10/14 12:24:25;;;;;;;4.72;1.85;;;16.90;70.90;;;;;;5072019;28;20032;-73
2021/10/14 12:26:55;;;;;;;2.40;1.90;;;16.80;71.10;;;;;;5070578;28;20078;-72
2021/10/14 12:29:34;;;;;;;3.10;1.73;;;16.90;70.60;;;;;;5072048;28;20033;-72
2021/10/14 12:32:20;;;;;;;3.80;1.75;;;17.00;70.50;;;;;;5071228;28;20537;-72
2021/10/14 12:34:52;;;;;;;5.15;1.90;;;17.00;70.40;;;;;;5071368;28;20032;-71
2021/10/14 12:37:23;;;;;;;5.07;1.77;;;16.90;70.60;;;;;;5072116;28;20079;-72
2021/10/14 12:40:20;;;;;;;3.88;1.73;;;16.70;71.30;;;;;;5071008;28;20032;-72
2021/10/14 12:45:39;;;;;;;6.07;2.22;;;16.50;73.40;;;;;;5071604;28;20078;-72
2021/10/14 12:48:12;;;;;;;8.70;2.00;;;16.60;72.10;;;;;;5071617;28;20036;-71
2021/10/14 12:53:41;;;;;;;4.78;2.05;;;16.80;74.40;;;;;;5071677;28;20409;-71
2021/10/14 12:56:08;;;;;;;5.50;2.40;;;16.80;72.30;;;;;;5071560;28;20032;-72
2021/10/14 12:58:34;;;;;;;3.30;1.83;;;16.80;73.80;;;;;;5071432;28;20114;-71
2021/10/14 13:01:16;;;;;;;2.80;1.50;;;16.80;73.80;;;;;;5071160;28;20060;-73
2021/10/14 13:03:42;;;;;;;5.68;2.17;;;16.70;74.30;;;;;;5070391;28;20469;-73